sensor_id;sensor_type;location;lat;lon;timestamp;P1;durP1;ratioP1;P2;durP2;ratioP2
39442;SDS011;25147;52.142;9.960;2023-05-10T00:01:00;5.80;;;2.90;;
39442;SDS011;25147;52.142;9.960;2023-05-10T00:03:27;5.78;;;2.92;;
39442;SDS011;25147;52.142;9.960;2023-05-10T00:05:54;3.10;;;2.80;;
39442;SDS011;25147;52.142;9.960;2023-05-10T00:08:21;3.10;;;2.80;;
39442;SDS011;25147;52.142;9.960;2023-05-10T00:10:48;7.05;;;3.30;;
39442;SDS011;25147;52.142;9.960;2023-05-10T00:13:16;4.32;;;3.08;;
39442;SDS011;25147;52.142;9.960;2023-05-10T00:15:43;4.47;;;3.20;;
39442;SDS011;25147;52.142;9.960;2023-05-10T00:18:10;3.42;;;3.08;;
39442;SDS011;25147;52.142;9.960;2023-05-10T00:20:36;4.50;;;3.00;;
39442;SDS011;25147;52.142;9.960;2023-05-10T00:23:03;3.47;;;3.17;;
39442;SDS011;25147;52.142;9.960;2023-05-10T00:25:30;3.80;;;3.20;;
39442;SDS011;25147;52.142;9.960;2023-05-10T00:27:56;4.20;;;3.30;;
39442;SDS011;25147;52.142;9.960;2023-05-10T00:30:25;4.22;;;3.10;;
39442;SDS011;25147;52.142;9.960;2023-05-10T00:32:51;3.35;;;3.05;;
39442;SDS011;25147;52.142;9.960;2023-05-10T00:35:18;3.83;;;3.00;;
39442;SDS011;25147;52.142;9.960;2023-05-10T00:37:46;4.78;;;3.55;;
39442;SDS011;25147;52.142;9.960;2023-05-10T00:40:13;2.88;;;2.65;;
39442;SDS011;25147;52.142;9.960;2023-05-10T00:42:40;3.60;;;3.20;;
39442;SDS011;25147;52.142;9.960;2023-05-10T00:45:07;5.32;;;3.42;;
39442;SDS011;25147;52.142;9.960;2023-05-10T00:47:35;3.72;;;3.20;;
39442;SDS011;25147;52.142;9.960;2023-05-10T00:50:02;3.58;;;2.95;;
39442;SDS011;25147;52.142;9.960;2023-05-10T00:52:29;5.30;;;3.42;;
39442;SDS011;25147;52.142;9.960;2023-05-10T00:54:56;3.50;;;3.20;;
39442;SDS011;25147;52.142;9.960;2023-05-10T00:57:23;3.72;;;3.15;;
39442;SDS011;25147;52.142;9.960;2023-05-10T00:59:50;3.28;;;2.97;;
39442;SDS011;25147;52.142;9.960;2023-05-10T01:02:17;4.47;;;2.88;;
39442;SDS011;25147;52.142;9.960;2023-05-10T01:04:45;3.90;;;3.50;;
39442;SDS011;25147;52.142;9.960;2023-05-10T01:07:13;4.35;;;3.35;;
39442;SDS011;25147;52.142;9.960;2023-05-10T01:09:39;3.95;;;3.55;;
39442;SDS011;25147;52.142;9.960;2023-05-10T01:12:06;3.97;;;3.58;;
39442;SDS011;25147;52.142;9.960;2023-05-10T01:14:33;5.20;;;4.32;;
39442;SDS011;25147;52.142;9.960;2023-05-10T01:17:01;5.35;;;3.65;;
39442;SDS011;25147;52.142;9.960;2023-05-10T01:19:29;4.32;;;3.58;;
39442;SDS011;25147;52.142;9.960;2023-05-10T01:22:06;8.55;;;3.63;;
39442;SDS011;25147;52.142;9.960;2023-05-10T01:25:04;4.22;;;3.47;;
39442;SDS011;25147;52.142;9.960;2023-05-10T01:27:53;6.20;;;3.80;;
39442;SDS011;25147;52.142;9.960;2023-05-10T01:33:37;5.78;;;3.10;;
39442;SDS011;25147;52.142;9.960;2023-05-10T01:36:09;6.38;;;3.72;;
39442;SDS011;25147;52.142;9.960;2023-05-10T01:38:43;5.65;;;4.00;;
39442;SDS011;25147;52.142;9.960;2023-05-10T01:41:19;4.40;;;3.10;;
39442;SDS011;25147;52.142;9.960;2023-05-10T01:43:55;4.75;;;3.90;;
39442;SDS011;25147;52.142;9.960;2023-05-10T01:46:31;4.28;;;3.72;;
39442;SDS011;25147;52.142;9.960;2023-05-10T01:49:04;3.85;;;3.47;;
39442;SDS011;25147;52.142;9.960;2023-05-10T01:51:38;5.07;;;3.90;;
39442;SDS011;25147;52.142;9.960;2023-05-10T01:54:08;4.38;;;3.53;;
39442;SDS011;25147;52.142;9.960;2023-05-10T01:56:36;4.40;;;3.72;;
39442;SDS011;25147;52.142;9.960;2023-05-10T01:59:06;5.20;;;3.75;;
39442;SDS011;25147;52.142;9.960;2023-05-10T02:01:37;3.75;;;3.40;;
39442;SDS011;25147;52.142;9.960;2023-05-10T02:04:07;4.13;;;3.60;;
39442;SDS011;25147;52.142;9.960;2023-05-10T02:06:36;6.75;;;3.80;;
39442;SDS011;25147;52.142;9.960;2023-05-10T02:09:04;4.93;;;3.53;;
39442;SDS011;25147;52.142;9.960;2023-05-10T02:11:33;4.63;;;4.22;;
39442;SDS011;25147;52.142;9.960;2023-05-10T02:13:59;4.43;;;4.05;;
39442;SDS011;25147;52.142;9.960;2023-05-10T02:16:27;6.93;;;3.70;;
39442;SDS011;25147;52.142;9.960;2023-05-10T02:18:55;5.50;;;3.78;;
39442;SDS011;25147;52.142;9.960;2023-05-10T02:21:29;7.45;;;3.85;;
39442;SDS011;25147;52.142;9.960;2023-05-10T02:23:57;4.38;;;3.95;;
39442;SDS011;25147;52.142;9.960;2023-05-10T02:26:26;4.88;;;3.47;;
39442;SDS011;25147;52.142;9.960;2023-05-10T02:28:54;4.13;;;3.50;;
39442;SDS011;25147;52.142;9.960;2023-05-10T02:31:22;3.70;;;3.40;;
39442;SDS011;25147;52.142;9.960;2023-05-10T02:33:49;3.92;;;3.55;;
39442;SDS011;25147;52.142;9.960;2023-05-10T02:36:16;3.67;;;3.38;;
39442;SDS011;25147;52.142;9.960;2023-05-10T02:38:46;5.40;;;3.72;;
39442;SDS011;25147;52.142;9.960;2023-05-10T02:41:13;5.47;;;3.95;;
39442;SDS011;25147;52.142;9.960;2023-05-10T02:43:41;5.68;;;4.38;;
39442;SDS011;25147;52.142;9.960;2023-05-10T02:46:08;4.60;;;4.15;;
39442;SDS011;25147;52.142;9.960;2023-05-10T02:48:35;6.45;;;4.47;;
39442;SDS011;25147;52.142;9.960;2023-05-10T02:51:04;7.00;;;4.65;;
39442;SDS011;25147;52.142;9.960;2023-05-10T02:53:35;4.25;;;3.95;;
39442;SDS011;25147;52.142;9.960;2023-05-10T02:56:08;4.88;;;4.38;;
39442;SDS011;25147;52.142;9.960;2023-05-10T02:58:40;5.68;;;4.15;;
39442;SDS011;25147;52.142;9.960;2023-05-10T03:01:07;5.57;;;4.60;;
39442;SDS011;25147;52.142;9.960;2023-05-10T03:03:34;6.03;;;4.35;;
39442;SDS011;25147;52.142;9.960;2023-05-10T03:06:00;5.70;;;4.70;;
39442;SDS011;25147;52.142;9.960;2023-05-10T03:08:27;7.75;;;4.40;;
39442;SDS011;25147;52.142;9.960;2023-05-10T03:10:55;4.75;;;4.22;;
39442;SDS011;25147;52.142;9.960;2023-05-10T03:13:39;4.78;;;4.38;;
39442;SDS011;25147;52.142;9.960;2023-05-10T03:16:15;4.80;;;4.38;;
39442;SDS011;25147;52.142;9.960;2023-05-10T03:18:50;4.93;;;4.43;;
39442;SDS011;25147;52.142;9.960;2023-05-10T03:21:23;6.43;;;4.75;;
39442;SDS011;25147;52.142;9.960;2023-05-10T03:23:56;4.53;;;3.95;;
39442;SDS011;25147;52.142;9.960;2023-05-10T03:26:26;6.85;;;4.60;;
39442;SDS011;25147;52.142;9.960;2023-05-10T03:28:55;4.88;;;4.47;;
39442;SDS011;25147;52.142;9.960;2023-05-10T03:31:24;5.43;;;4.35;;
39442;SDS011;25147;52.142;9.960;2023-05-10T03:33:51;5.97;;;4.95;;
39442;SDS011;25147;52.142;9.960;2023-05-10T03:36:21;7.68;;;4.95;;
39442;SDS011;25147;52.142;9.960;2023-05-10T03:38:48;7.22;;;4.75;;
39442;SDS011;25147;52.142;9.960;2023-05-10T03:41:15;5.25;;;4.85;;
39442;SDS011;25147;52.142;9.960;2023-05-10T03:43:42;7.45;;;4.90;;
39442;SDS011;25147;52.142;9.960;2023-05-10T03:46:09;5.95;;;5.45;;
39442;SDS011;25147;52.142;9.960;2023-05-10T03:48:36;6.85;;;6.15;;
39442;SDS011;25147;52.142;9.960;2023-05-10T03:51:03;5.70;;;5.20;;
39442;SDS011;25147;52.142;9.960;2023-05-10T03:53:30;5.88;;;5.28;;
39442;SDS011;25147;52.142;9.960;2023-05-10T03:55:56;7.45;;;5.88;;
39442;SDS011;25147;52.142;9.960;2023-05-10T03:58:23;5.72;;;5.22;;
39442;SDS011;25147;52.142;9.960;2023-05-10T04:00:50;6.97;;;5.57;;
39442;SDS011;25147;52.142;9.960;2023-05-10T04:03:18;6.63;;;5.93;;
39442;SDS011;25147;52.142;9.960;2023-05-10T04:05:45;6.13;;;5.53;;
39442;SDS011;25147;52.142;9.960;2023-05-10T04:08:12;7.05;;;4.93;;
39442;SDS011;25147;52.142;9.960;2023-05-10T04:10:40;6.25;;;4.80;;
39442;SDS011;25147;52.142;9.960;2023-05-10T04:13:06;5.82;;;4.63;;
39442;SDS011;25147;52.142;9.960;2023-05-10T04:15:33;6.78;;;4.82;;
39442;SDS011;25147;52.142;9.960;2023-05-10T04:18:00;5.05;;;4.65;;
39442;SDS011;25147;52.142;9.960;2023-05-10T04:20:29;9.23;;;5.00;;
39442;SDS011;25147;52.142;9.960;2023-05-10T04:22:56;6.47;;;5.80;;
39442;SDS011;25147;52.142;9.960;2023-05-10T04:25:22;6.75;;;5.28;;
39442;SDS011;25147;52.142;9.960;2023-05-10T04:27:49;5.55;;;4.90;;
39442;SDS011;25147;52.142;9.960;2023-05-10T04:30:16;7.10;;;5.40;;
39442;SDS011;25147;52.142;9.960;2023-05-10T04:32:43;6.95;;;6.13;;
39442;SDS011;25147;52.142;9.960;2023-05-10T04:35:09;7.57;;;5.70;;
39442;SDS011;25147;52.142;9.960;2023-05-10T04:37:37;5.45;;;5.00;;
39442;SDS011;25147;52.142;9.960;2023-05-10T04:40:08;6.50;;;5.85;;
39442;SDS011;25147;52.142;9.960;2023-05-10T04:42:36;6.57;;;5.97;;
39442;SDS011;25147;52.142;9.960;2023-05-10T04:45:03;5.70;;;5.20;;
39442;SDS011;25147;52.142;9.960;2023-05-10T04:47:30;7.60;;;5.10;;
39442;SDS011;25147;52.142;9.960;2023-05-10T04:49:59;6.22;;;4.70;;
39442;SDS011;25147;52.142;9.960;2023-05-10T04:52:26;5.97;;;5.38;;
39442;SDS011;25147;52.142;9.960;2023-05-10T04:54:54;5.75;;;4.78;;
39442;SDS011;25147;52.142;9.960;2023-05-10T04:57:21;5.28;;;4.78;;
39442;SDS011;25147;52.142;9.960;2023-05-10T04:59:47;4.93;;;4.47;;
39442;SDS011;25147;52.142;9.960;2023-05-10T05:02:14;7.20;;;4.78;;
39442;SDS011;25147;52.142;9.960;2023-05-10T05:04:41;6.28;;;4.78;;
39442;SDS011;25147;52.142;9.960;2023-05-10T05:07:07;5.15;;;4.75;;
39442;SDS011;25147;52.142;9.960;2023-05-10T05:09:34;5.25;;;4.72;;
39442;SDS011;25147;52.142;9.960;2023-05-10T05:12:03;4.55;;;4.15;;
39442;SDS011;25147;52.142;9.960;2023-05-10T05:14:30;6.07;;;5.20;;
39442;SDS011;25147;52.142;9.960;2023-05-10T05:16:56;6.95;;;4.95;;
39442;SDS011;25147;52.142;9.960;2023-05-10T05:19:23;6.50;;;5.53;;
39442;SDS011;25147;52.142;9.960;2023-05-10T05:21:50;5.50;;;5.00;;
39442;SDS011;25147;52.142;9.960;2023-05-10T05:24:17;5.47;;;4.97;;
39442;SDS011;25147;52.142;9.960;2023-05-10T05:26:44;6.20;;;5.60;;
39442;SDS011;25147;52.142;9.960;2023-05-10T05:29:12;8.32;;;6.50;;
39442;SDS011;25147;52.142;9.960;2023-05-10T05:31:39;5.88;;;5.38;;
39442;SDS011;25147;52.142;9.960;2023-05-10T05:34:06;10.00;;;8.32;;
39442;SDS011;25147;52.142;9.960;2023-05-10T05:36:36;12.52;;;9.75;;
39442;SDS011;25147;52.142;9.960;2023-05-10T05:39:04;10.43;;;9.43;;
39442;SDS011;25147;52.142;9.960;2023-05-10T05:41:31;7.95;;;7.18;;
39442;SDS011;25147;52.142;9.960;2023-05-10T05:43:58;7.00;;;6.40;;
39442;SDS011;25147;52.142;9.960;2023-05-10T05:46:26;6.97;;;6.28;;
39442;SDS011;25147;52.142;9.960;2023-05-10T05:48:53;6.38;;;5.88;;
39442;SDS011;25147;52.142;9.960;2023-05-10T05:51:19;7.03;;;6.43;;
39442;SDS011;25147;52.142;9.960;2023-05-10T05:53:46;6.45;;;5.85;;
39442;SDS011;25147;52.142;9.960;2023-05-10T05:56:13;7.25;;;6.60;;
39442;SDS011;25147;52.142;9.960;2023-05-10T05:58:39;9.48;;;8.52;;
39442;SDS011;25147;52.142;9.960;2023-05-10T06:01:06;6.70;;;6.10;;
39442;SDS011;25147;52.142;9.960;2023-05-10T06:03:35;7.90;;;6.13;;
39442;SDS011;25147;52.142;9.960;2023-05-10T06:06:02;8.07;;;6.35;;
39442;SDS011;25147;52.142;9.960;2023-05-10T06:08:28;6.60;;;6.00;;
39442;SDS011;25147;52.142;9.960;2023-05-10T06:10:55;6.60;;;5.90;;
39442;SDS011;25147;52.142;9.960;2023-05-10T06:13:22;6.65;;;6.00;;
39442;SDS011;25147;52.142;9.960;2023-05-10T06:15:48;7.18;;;6.47;;
39442;SDS011;25147;52.142;9.960;2023-05-10T06:18:16;6.68;;;5.97;;
39442;SDS011;25147;52.142;9.960;2023-05-10T06:20:44;6.90;;;6.10;;
39442;SDS011;25147;52.142;9.960;2023-05-10T06:23:11;7.15;;;6.55;;
39442;SDS011;25147;52.142;9.960;2023-05-10T06:25:37;7.28;;;6.68;;
39442;SDS011;25147;52.142;9.960;2023-05-10T06:28:04;7.72;;;7.03;;
39442;SDS011;25147;52.142;9.960;2023-05-10T06:30:31;7.90;;;6.95;;
39442;SDS011;25147;52.142;9.960;2023-05-10T06:32:57;8.50;;;7.32;;
39442;SDS011;25147;52.142;9.960;2023-05-10T06:35:24;7.25;;;6.65;;
39442;SDS011;25147;52.142;9.960;2023-05-10T06:37:52;7.55;;;6.85;;
39442;SDS011;25147;52.142;9.960;2023-05-10T06:40:19;7.50;;;6.80;;
39442;SDS011;25147;52.142;9.960;2023-05-10T06:42:46;7.15;;;6.53;;
39442;SDS011;25147;52.142;9.960;2023-05-10T06:45:13;7.63;;;7.10;;
39442;SDS011;25147;52.142;9.960;2023-05-10T06:47:40;7.18;;;6.47;;
39442;SDS011;25147;52.142;9.960;2023-05-10T06:50:08;8.23;;;7.20;;
39442;SDS011;25147;52.142;9.960;2023-05-10T06:52:36;7.20;;;6.47;;
39442;SDS011;25147;52.142;9.960;2023-05-10T06:55:05;8.55;;;7.70;;
39442;SDS011;25147;52.142;9.960;2023-05-10T06:57:33;7.72;;;6.63;;
39442;SDS011;25147;52.142;9.960;2023-05-10T07:00:00;9.82;;;8.95;;
39442;SDS011;25147;52.142;9.960;2023-05-10T07:02:29;13.88;;;12.60;;
39442;SDS011;25147;52.142;9.960;2023-05-10T07:04:56;8.95;;;8.05;;
39442;SDS011;25147;52.142;9.960;2023-05-10T07:07:22;8.20;;;7.50;;
39442;SDS011;25147;52.142;9.960;2023-05-10T07:09:49;9.02;;;6.88;;
39442;SDS011;25147;52.142;9.960;2023-05-10T07:12:18;7.32;;;6.63;;
39442;SDS011;25147;52.142;9.960;2023-05-10T07:14:44;7.28;;;6.25;;
39442;SDS011;25147;52.142;9.960;2023-05-10T07:17:11;5.82;;;5.32;;
39442;SDS011;25147;52.142;9.960;2023-05-10T07:19:38;5.93;;;5.18;;
39442;SDS011;25147;52.142;9.960;2023-05-10T07:22:05;6.75;;;6.10;;
39442;SDS011;25147;52.142;9.960;2023-05-10T07:24:32;6.72;;;6.13;;
39442;SDS011;25147;52.142;9.960;2023-05-10T07:26:59;6.68;;;6.13;;
39442;SDS011;25147;52.142;9.960;2023-05-10T07:29:27;6.65;;;5.93;;
39442;SDS011;25147;52.142;9.960;2023-05-10T07:31:54;6.07;;;5.57;;
39442;SDS011;25147;52.142;9.960;2023-05-10T07:34:21;6.28;;;5.70;;
39442;SDS011;25147;52.142;9.960;2023-05-10T07:36:48;6.30;;;5.82;;
39442;SDS011;25147;52.142;9.960;2023-05-10T07:39:15;6.57;;;5.97;;
39442;SDS011;25147;52.142;9.960;2023-05-10T07:41:42;6.47;;;5.88;;
39442;SDS011;25147;52.142;9.960;2023-05-10T07:44:08;6.40;;;5.80;;
39442;SDS011;25147;52.142;9.960;2023-05-10T07:46:37;6.07;;;5.57;;
39442;SDS011;25147;52.142;9.960;2023-05-10T07:49:04;6.25;;;5.70;;
39442;SDS011;25147;52.142;9.960;2023-05-10T07:51:31;6.43;;;5.93;;
39442;SDS011;25147;52.142;9.960;2023-05-10T07:54:00;6.53;;;5.47;;
39442;SDS011;25147;52.142;9.960;2023-05-10T07:56:29;6.13;;;5.63;;
39442;SDS011;25147;52.142;9.960;2023-05-10T07:58:57;6.65;;;5.53;;
39442;SDS011;25147;52.142;9.960;2023-05-10T08:01:25;6.00;;;5.50;;
39442;SDS011;25147;52.142;9.960;2023-05-10T08:03:54;5.75;;;5.25;;
39442;SDS011;25147;52.142;9.960;2023-05-10T08:06:21;7.28;;;4.75;;
39442;SDS011;25147;52.142;9.960;2023-05-10T08:08:48;5.00;;;4.32;;
39442;SDS011;25147;52.142;9.960;2023-05-10T08:11:16;3.67;;;3.38;;
39442;SDS011;25147;52.142;9.960;2023-05-10T08:13:42;3.80;;;3.50;;
39442;SDS011;25147;52.142;9.960;2023-05-10T08:16:09;3.20;;;2.90;;
39442;SDS011;25147;52.142;9.960;2023-05-10T08:18:36;2.63;;;2.42;;
39442;SDS011;25147;52.142;9.960;2023-05-10T08:21:04;2.47;;;2.28;;
39442;SDS011;25147;52.142;9.960;2023-05-10T08:23:31;2.42;;;2.22;;
39442;SDS011;25147;52.142;9.960;2023-05-10T08:25:58;2.45;;;2.22;;
39442;SDS011;25147;52.142;9.960;2023-05-10T08:28:25;1.80;;;1.70;;
39442;SDS011;25147;52.142;9.960;2023-05-10T08:30:52;1.90;;;1.80;;
39442;SDS011;25147;52.142;9.960;2023-05-10T08:33:19;2.30;;;1.92;;
39442;SDS011;25147;52.142;9.960;2023-05-10T08:35:46;1.95;;;1.75;;
39442;SDS011;25147;52.142;9.960;2023-05-10T08:38:14;2.20;;;1.58;;
39442;SDS011;25147;52.142;9.960;2023-05-10T08:40:42;1.80;;;1.70;;
39442;SDS011;25147;52.142;9.960;2023-05-10T08:43:18;3.28;;;1.90;;
39442;SDS011;25147;52.142;9.960;2023-05-10T08:45:49;1.65;;;1.27;;
39442;SDS011;25147;52.142;9.960;2023-05-10T08:48:18;1.88;;;1.70;;
39442;SDS011;25147;52.142;9.960;2023-05-10T08:50:45;2.85;;;1.85;;
39442;SDS011;25147;52.142;9.960;2023-05-10T08:53:17;1.58;;;1.48;;
39442;SDS011;25147;52.142;9.960;2023-05-10T08:55:46;1.27;;;1.17;;
39442;SDS011;25147;52.142;9.960;2023-05-10T08:58:13;1.55;;;1.30;;
39442;SDS011;25147;52.142;9.960;2023-05-10T09:00:41;1.08;;;1.08;;
39442;SDS011;25147;52.142;9.960;2023-05-10T09:03:08;1.13;;;0.88;;
39442;SDS011;25147;52.142;9.960;2023-05-10T09:05:35;1.20;;;1.00;;
39442;SDS011;25147;52.142;9.960;2023-05-10T09:08:02;1.88;;;0.90;;
39442;SDS011;25147;52.142;9.960;2023-05-10T09:10:31;0.75;;;0.70;;
39442;SDS011;25147;52.142;9.960;2023-05-10T09:12:58;1.08;;;0.60;;
39442;SDS011;25147;52.142;9.960;2023-05-10T09:15:25;1.13;;;0.80;;
39442;SDS011;25147;52.142;9.960;2023-05-10T09:17:52;0.60;;;0.60;;
39442;SDS011;25147;52.142;9.960;2023-05-10T09:20:20;1.83;;;0.60;;
39442;SDS011;25147;52.142;9.960;2023-05-10T09:22:48;1.75;;;0.65;;
39442;SDS011;25147;52.142;9.960;2023-05-10T09:25:18;2.88;;;0.52;;
39442;SDS011;25147;52.142;9.960;2023-05-10T09:27:48;2.97;;;0.88;;
39442;SDS011;25147;52.142;9.960;2023-05-10T09:30:23;0.80;;;0.60;;
39442;SDS011;25147;52.142;9.960;2023-05-10T09:32:51;2.50;;;0.65;;
39442;SDS011;25147;52.142;9.960;2023-05-10T09:35:20;3.20;;;0.80;;
39442;SDS011;25147;52.142;9.960;2023-05-10T09:37:49;0.90;;;0.25;;
39442;SDS011;25147;52.142;9.960;2023-05-10T09:40:19;0.40;;;0.40;;
39442;SDS011;25147;52.142;9.960;2023-05-10T09:42:52;0.90;;;0.70;;
39442;SDS011;25147;52.142;9.960;2023-05-10T09:45:20;0.40;;;0.40;;
39442;SDS011;25147;52.142;9.960;2023-05-10T09:47:47;0.47;;;0.40;;
39442;SDS011;25147;52.142;9.960;2023-05-10T09:50:14;0.95;;;0.63;;
39442;SDS011;25147;52.142;9.960;2023-05-10T09:52:48;0.65;;;0.50;;
39442;SDS011;25147;52.142;9.960;2023-05-10T09:55:17;0.70;;;0.60;;
39442;SDS011;25147;52.142;9.960;2023-05-10T09:57:45;0.40;;;0.40;;
39442;SDS011;25147;52.142;9.960;2023-05-10T10:00:16;0.70;;;0.60;;
39442;SDS011;25147;52.142;9.960;2023-05-10T10:02:45;0.63;;;0.50;;
39442;SDS011;25147;52.142;9.960;2023-05-10T10:05:13;0.70;;;0.70;;
39442;SDS011;25147;52.142;9.960;2023-05-10T10:07:40;1.08;;;0.52;;
39442;SDS011;25147;52.142;9.960;2023-05-10T10:10:07;0.82;;;0.82;;
39442;SDS011;25147;52.142;9.960;2023-05-10T10:12:38;0.57;;;0.57;;
39442;SDS011;25147;52.142;9.960;2023-05-10T10:15:07;0.80;;;0.80;;
39442;SDS011;25147;52.142;9.960;2023-05-10T10:17:38;0.90;;;0.75;;
39442;SDS011;25147;52.142;9.960;2023-05-10T10:20:06;2.55;;;1.60;;
39442;SDS011;25147;52.142;9.960;2023-05-10T10:22:36;2.58;;;1.30;;
39442;SDS011;25147;52.142;9.960;2023-05-10T10:25:04;2.20;;;1.40;;
39442;SDS011;25147;52.142;9.960;2023-05-10T10:27:34;2.92;;;1.20;;
39442;SDS011;25147;52.142;9.960;2023-05-10T10:30:13;1.58;;;1.48;;
39442;SDS011;25147;52.142;9.960;2023-05-10T10:32:55;2.97;;;1.42;;
39442;SDS011;25147;52.142;9.960;2023-05-10T10:35:33;0.95;;;0.95;;
39442;SDS011;25147;52.142;9.960;2023-05-10T10:38:00;1.33;;;1.23;;
39442;SDS011;25147;52.142;9.960;2023-05-10T10:40:27;1.30;;;1.20;;
39442;SDS011;25147;52.142;9.960;2023-05-10T10:42:55;2.63;;;1.27;;
39442;SDS011;25147;52.142;9.960;2023-05-10T10:45:23;2.03;;;1.30;;
39442;SDS011;25147;52.142;9.960;2023-05-10T10:47:56;1.25;;;1.17;;
39442;SDS011;25147;52.142;9.960;2023-05-10T10:50:51;1.67;;;1.40;;
39442;SDS011;25147;52.142;9.960;2023-05-10T10:53:23;2.58;;;1.45;;
39442;SDS011;25147;52.142;9.960;2023-05-10T10:56:02;1.42;;;1.33;;
39442;SDS011;25147;52.142;9.960;2023-05-10T10:58:32;2.92;;;1.63;;
39442;SDS011;25147;52.142;9.960;2023-05-10T11:01:13;2.17;;;1.30;;
39442;SDS011;25147;52.142;9.960;2023-05-10T11:06:44;1.63;;;1.40;;
39442;SDS011;25147;52.142;9.960;2023-05-10T11:09:12;2.55;;;1.33;;
39442;SDS011;25147;52.142;9.960;2023-05-10T11:11:50;3.95;;;1.70;;
39442;SDS011;25147;52.142;9.960;2023-05-10T11:14:20;2.30;;;1.40;;
39442;SDS011;25147;52.142;9.960;2023-05-10T11:16:48;3.13;;;1.50;;
39442;SDS011;25147;52.142;9.960;2023-05-10T11:19:17;1.60;;;1.50;;
39442;SDS011;25147;52.142;9.960;2023-05-10T11:21:45;2.35;;;1.95;;
39442;SDS011;25147;52.142;9.960;2023-05-10T11:24:13;2.28;;;1.50;;
39442;SDS011;25147;52.142;9.960;2023-05-10T11:26:41;1.95;;;1.85;;
39442;SDS011;25147;52.142;9.960;2023-05-10T11:29:08;3.80;;;1.80;;
39442;SDS011;25147;52.142;9.960;2023-05-10T11:31:35;2.67;;;1.90;;
39442;SDS011;25147;52.142;9.960;2023-05-10T11:34:12;4.05;;;2.00;;
39442;SDS011;25147;52.142;9.960;2023-05-10T11:36:51;2.80;;;1.83;;
39442;SDS011;25147;52.142;9.960;2023-05-10T11:39:19;1.92;;;1.67;;
39442;SDS011;25147;52.142;9.960;2023-05-10T11:41:49;4.78;;;2.13;;
39442;SDS011;25147;52.142;9.960;2023-05-10T11:44:16;7.43;;;6.72;;
39442;SDS011;25147;52.142;9.960;2023-05-10T11:46:43;2.97;;;1.67;;
39442;SDS011;25147;52.142;9.960;2023-05-10T11:49:10;1.80;;;1.50;;
39442;SDS011;25147;52.142;9.960;2023-05-10T11:51:39;1.88;;;1.50;;
39442;SDS011;25147;52.142;9.960;2023-05-10T11:54:09;1.60;;;1.50;;
39442;SDS011;25147;52.142;9.960;2023-05-10T11:56:36;2.78;;;1.60;;
39442;SDS011;25147;52.142;9.960;2023-05-10T11:59:03;2.38;;;1.48;;
39442;SDS011;25147;52.142;9.960;2023-05-10T12:01:31;2.30;;;1.20;;
39442;SDS011;25147;52.142;9.960;2023-05-10T12:03:58;3.38;;;1.67;;
39442;SDS011;25147;52.142;9.960;2023-05-10T12:06:26;1.52;;;1.40;;
39442;SDS011;25147;52.142;9.960;2023-05-10T12:08:55;1.60;;;1.50;;
39442;SDS011;25147;52.142;9.960;2023-05-10T12:11:24;1.92;;;1.50;;
39442;SDS011;25147;52.142;9.960;2023-05-10T12:13:52;2.92;;;2.28;;
39442;SDS011;25147;52.142;9.960;2023-05-10T12:16:20;2.55;;;1.52;;
39442;SDS011;25147;52.142;9.960;2023-05-10T12:18:48;2.97;;;1.83;;
39442;SDS011;25147;52.142;9.960;2023-05-10T12:21:16;1.42;;;1.33;;
39442;SDS011;25147;52.142;9.960;2023-05-10T12:23:45;2.97;;;1.50;;
39442;SDS011;25147;52.142;9.960;2023-05-10T12:26:13;1.98;;;1.80;;
39442;SDS011;25147;52.142;9.960;2023-05-10T12:28:40;2.70;;;1.50;;
39442;SDS011;25147;52.142;9.960;2023-05-10T12:31:11;1.95;;;1.50;;
39442;SDS011;25147;52.142;9.960;2023-05-10T12:33:39;2.47;;;1.55;;
39442;SDS011;25147;52.142;9.960;2023-05-10T12:36:08;2.63;;;1.63;;
39442;SDS011;25147;52.142;9.960;2023-05-10T12:38:36;2.53;;;1.58;;
39442;SDS011;25147;52.142;9.960;2023-05-10T12:41:04;2.70;;;2.00;;
39442;SDS011;25147;52.142;9.960;2023-05-10T12:43:34;2.75;;;2.20;;
39442;SDS011;25147;52.142;9.960;2023-05-10T12:46:05;3.08;;;2.50;;
39442;SDS011;25147;52.142;9.960;2023-05-10T12:48:33;5.75;;;3.08;;
39442;SDS011;25147;52.142;9.960;2023-05-10T12:51:00;5.00;;;2.80;;
39442;SDS011;25147;52.142;9.960;2023-05-10T12:53:27;4.20;;;2.70;;
39442;SDS011;25147;52.142;9.960;2023-05-10T12:55:54;3.10;;;2.45;;
39442;SDS011;25147;52.142;9.960;2023-05-10T12:58:20;2.95;;;2.60;;
39442;SDS011;25147;52.142;9.960;2023-05-10T13:00:49;2.70;;;2.50;;
39442;SDS011;25147;52.142;9.960;2023-05-10T13:03:16;3.80;;;2.85;;
39442;SDS011;25147;52.142;9.960;2023-05-10T13:05:43;2.60;;;2.03;;
39442;SDS011;25147;52.142;9.960;2023-05-10T13:08:10;2.55;;;1.60;;
39442;SDS011;25147;52.142;9.960;2023-05-10T13:10:37;1.85;;;1.42;;
39442;SDS011;25147;52.142;9.960;2023-05-10T13:13:03;1.70;;;1.40;;
39442;SDS011;25147;52.142;9.960;2023-05-10T13:15:30;1.05;;;1.05;;
39442;SDS011;25147;52.142;9.960;2023-05-10T13:17:58;1.90;;;1.30;;
39442;SDS011;25147;52.142;9.960;2023-05-10T13:20:26;1.15;;;1.05;;
39442;SDS011;25147;52.142;9.960;2023-05-10T13:22:53;1.55;;;1.30;;
39442;SDS011;25147;52.142;9.960;2023-05-10T13:25:20;1.95;;;1.60;;
39442;SDS011;25147;52.142;9.960;2023-05-10T13:27:46;1.45;;;1.35;;
39442;SDS011;25147;52.142;9.960;2023-05-10T13:30:13;1.38;;;1.27;;
39442;SDS011;25147;52.142;9.960;2023-05-10T13:32:40;1.60;;;1.50;;
39442;SDS011;25147;52.142;9.960;2023-05-10T13:35:08;1.63;;;1.42;;
39442;SDS011;25147;52.142;9.960;2023-05-10T13:37:35;1.40;;;1.30;;
39442;SDS011;25147;52.142;9.960;2023-05-10T13:40:02;1.75;;;1.65;;
39442;SDS011;25147;52.142;9.960;2023-05-10T13:42:30;2.63;;;1.27;;
39442;SDS011;25147;52.142;9.960;2023-05-10T13:44:59;2.85;;;1.67;;
39442;SDS011;25147;52.142;9.960;2023-05-10T13:47:26;3.70;;;3.40;;
39442;SDS011;25147;52.142;9.960;2023-05-10T13:49:52;2.95;;;2.75;;
39442;SDS011;25147;52.142;9.960;2023-05-10T13:52:21;2.30;;;2.10;;
39442;SDS011;25147;52.142;9.960;2023-05-10T13:54:47;1.58;;;1.48;;
39442;SDS011;25147;52.142;9.960;2023-05-10T13:57:14;2.83;;;1.75;;
39442;SDS011;25147;52.142;9.960;2023-05-10T13:59:42;3.30;;;1.63;;
39442;SDS011;25147;52.142;9.960;2023-05-10T14:02:08;1.90;;;1.70;;
39442;SDS011;25147;52.142;9.960;2023-05-10T14:04:35;1.75;;;1.33;;
39442;SDS011;25147;52.142;9.960;2023-05-10T14:07:02;1.83;;;1.73;;
39442;SDS011;25147;52.142;9.960;2023-05-10T14:09:30;1.27;;;1.17;;
39442;SDS011;25147;52.142;9.960;2023-05-10T14:11:57;1.60;;;1.33;;
39442;SDS011;25147;52.142;9.960;2023-05-10T14:14:24;2.15;;;1.50;;
39442;SDS011;25147;52.142;9.960;2023-05-10T14:16:51;2.47;;;1.27;;
39442;SDS011;25147;52.142;9.960;2023-05-10T14:19:18;1.80;;;1.13;;
39442;SDS011;25147;52.142;9.960;2023-05-10T14:21:44;2.83;;;1.40;;
39442;SDS011;25147;52.142;9.960;2023-05-10T14:24:11;1.60;;;1.50;;
39442;SDS011;25147;52.142;9.960;2023-05-10T14:26:39;1.80;;;1.40;;
39442;SDS011;25147;52.142;9.960;2023-05-10T14:29:06;3.03;;;1.38;;
39442;SDS011;25147;52.142;9.960;2023-05-10T14:31:33;1.25;;;1.25;;
39442;SDS011;25147;52.142;9.960;2023-05-10T14:33:59;1.58;;;1.40;;
39442;SDS011;25147;52.142;9.960;2023-05-10T14:36:26;1.33;;;1.30;;
39442;SDS011;25147;52.142;9.960;2023-05-10T14:38:54;1.20;;;1.20;;
39442;SDS011;25147;52.142;9.960;2023-05-10T14:41:20;1.98;;;1.50;;
39442;SDS011;25147;52.142;9.960;2023-05-10T14:43:49;1.63;;;1.52;;
39442;SDS011;25147;52.142;9.960;2023-05-10T14:46:16;1.60;;;1.50;;
39442;SDS011;25147;52.142;9.960;2023-05-10T14:48:43;2.97;;;1.90;;
39442;SDS011;25147;52.142;9.960;2023-05-10T14:51:09;2.00;;;1.60;;
39442;SDS011;25147;52.142;9.960;2023-05-10T14:53:36;1.85;;;1.73;;
39442;SDS011;25147;52.142;9.960;2023-05-10T14:56:04;2.25;;;1.45;;
39442;SDS011;25147;52.142;9.960;2023-05-10T14:58:31;1.88;;;1.50;;
39442;SDS011;25147;52.142;9.960;2023-05-10T15:00:59;1.70;;;1.60;;